sensor_id;sensor_type;location;lat;lon;timestamp;P1;durP1;ratioP1;P2;durP2;ratioP2
3274;SDS011;1649;53.672;10.064;2023-04-25T00:02:11;16.33;;;8.37;;
3274;SDS011;1649;53.672;10.064;2023-04-25T00:04:37;20.23;;;8.43;;
3274;SDS011;1649;53.672;10.064;2023-04-25T00:07:02;20.20;;;8.80;;
3274;SDS011;1649;53.672;10.064;2023-04-25T00:09:28;20.37;;;8.47;;
3274;SDS011;1649;53.672;10.064;2023-04-25T00:11:54;15.57;;;7.80;;
3274;SDS011;1649;53.672;10.064;2023-04-25T00:14:19;16.97;;;8.60;;
3274;SDS011;1649;53.672;10.064;2023-04-25T00:16:45;34.27;;;8.50;;
3274;SDS011;1649;53.672;10.064;2023-04-25T00:19:10;19.93;;;8.03;;
3274;SDS011;1649;53.672;10.064;2023-04-25T00:21:36;17.97;;;6.70;;
3274;SDS011;1649;53.672;10.064;2023-04-25T00:24:10;18.50;;;6.87;;
3274;SDS011;1649;53.672;10.064;2023-04-25T00:26:35;22.07;;;7.43;;
3274;SDS011;1649;53.672;10.064;2023-04-25T00:29:01;17.67;;;6.10;;
3274;SDS011;1649;53.672;10.064;2023-04-25T00:31:27;20.03;;;5.73;;
3274;SDS011;1649;53.672;10.064;2023-04-25T00:33:53;16.53;;;5.63;;
3274;SDS011;1649;53.672;10.064;2023-04-25T00:36:19;13.60;;;6.10;;
3274;SDS011;1649;53.672;10.064;2023-04-25T00:38:45;22.27;;;5.53;;
3274;SDS011;1649;53.672;10.064;2023-04-25T00:41:10;16.77;;;5.50;;
3274;SDS011;1649;53.672;10.064;2023-04-25T00:43:36;13.80;;;4.80;;
3274;SDS011;1649;53.672;10.064;2023-04-25T00:46:02;20.17;;;6.20;;
3274;SDS011;1649;53.672;10.064;2023-04-25T00:48:28;23.17;;;6.30;;
3274;SDS011;1649;53.672;10.064;2023-04-25T00:50:54;15.77;;;5.93;;
3274;SDS011;1649;53.672;10.064;2023-04-25T00:53:22;15.37;;;5.43;;
3274;SDS011;1649;53.672;10.064;2023-04-25T00:55:49;19.50;;;5.83;;
3274;SDS011;1649;53.672;10.064;2023-04-25T00:58:19;21.30;;;5.93;;
3274;SDS011;1649;53.672;10.064;2023-04-25T01:00:48;17.63;;;5.87;;
3274;SDS011;1649;53.672;10.064;2023-04-25T01:03:15;25.10;;;5.67;;
3274;SDS011;1649;53.672;10.064;2023-04-25T01:05:42;17.47;;;5.60;;
3274;SDS011;1649;53.672;10.064;2023-04-25T01:08:08;15.53;;;4.90;;
3274;SDS011;1649;53.672;10.064;2023-04-25T01:10:34;20.43;;;4.87;;
3274;SDS011;1649;53.672;10.064;2023-04-25T01:13:00;17.90;;;5.83;;
3274;SDS011;1649;53.672;10.064;2023-04-25T01:15:26;18.03;;;5.37;;
3274;SDS011;1649;53.672;10.064;2023-04-25T01:17:51;18.10;;;4.80;;
3274;SDS011;1649;53.672;10.064;2023-04-25T01:20:18;16.80;;;5.70;;
3274;SDS011;1649;53.672;10.064;2023-04-25T01:22:47;17.53;;;5.73;;
3274;SDS011;1649;53.672;10.064;2023-04-25T01:25:14;21.23;;;5.60;;
3274;SDS011;1649;53.672;10.064;2023-04-25T01:27:40;16.33;;;5.43;;
3274;SDS011;1649;53.672;10.064;2023-04-25T01:30:06;19.70;;;5.50;;
3274;SDS011;1649;53.672;10.064;2023-04-25T01:32:32;19.27;;;5.47;;
3274;SDS011;1649;53.672;10.064;2023-04-25T01:35:03;18.60;;;5.60;;
3274;SDS011;1649;53.672;10.064;2023-04-25T01:37:34;16.33;;;5.20;;
3274;SDS011;1649;53.672;10.064;2023-04-25T01:40:01;17.70;;;5.70;;
3274;SDS011;1649;53.672;10.064;2023-04-25T01:42:26;19.73;;;5.67;;
3274;SDS011;1649;53.672;10.064;2023-04-25T01:44:52;22.57;;;5.83;;
3274;SDS011;1649;53.672;10.064;2023-04-25T01:47:24;18.07;;;5.60;;
3274;SDS011;1649;53.672;10.064;2023-04-25T01:49:49;24.00;;;5.63;;
3274;SDS011;1649;53.672;10.064;2023-04-25T01:52:15;14.93;;;4.97;;
3274;SDS011;1649;53.672;10.064;2023-04-25T01:54:40;20.70;;;5.73;;
3274;SDS011;1649;53.672;10.064;2023-04-25T01:57:09;19.00;;;5.27;;
3274;SDS011;1649;53.672;10.064;2023-04-25T01:59:35;23.77;;;5.53;;
3274;SDS011;1649;53.672;10.064;2023-04-25T02:02:01;22.23;;;5.23;;
3274;SDS011;1649;53.672;10.064;2023-04-25T02:04:29;21.90;;;5.40;;
3274;SDS011;1649;53.672;10.064;2023-04-25T02:06:55;19.57;;;5.20;;
3274;SDS011;1649;53.672;10.064;2023-04-25T02:09:20;17.90;;;5.03;;
3274;SDS011;1649;53.672;10.064;2023-04-25T02:11:46;22.53;;;5.60;;
3274;SDS011;1649;53.672;10.064;2023-04-25T02:14:11;21.00;;;5.90;;
3274;SDS011;1649;53.672;10.064;2023-04-25T02:16:37;15.13;;;5.23;;
3274;SDS011;1649;53.672;10.064;2023-04-25T02:19:03;17.47;;;5.10;;
3274;SDS011;1649;53.672;10.064;2023-04-25T02:21:29;27.47;;;5.90;;
3274;SDS011;1649;53.672;10.064;2023-04-25T02:23:55;19.97;;;4.70;;
3274;SDS011;1649;53.672;10.064;2023-04-25T02:26:21;16.00;;;4.53;;
3274;SDS011;1649;53.672;10.064;2023-04-25T02:28:48;18.87;;;5.20;;
3274;SDS011;1649;53.672;10.064;2023-04-25T02:31:14;19.27;;;5.23;;
3274;SDS011;1649;53.672;10.064;2023-04-25T02:33:40;23.03;;;5.00;;
3274;SDS011;1649;53.672;10.064;2023-04-25T02:36:06;20.73;;;6.17;;
3274;SDS011;1649;53.672;10.064;2023-04-25T02:38:31;14.47;;;5.33;;
3274;SDS011;1649;53.672;10.064;2023-04-25T02:40:57;12.70;;;4.57;;
3274;SDS011;1649;53.672;10.064;2023-04-25T02:43:22;13.60;;;4.93;;
3274;SDS011;1649;53.672;10.064;2023-04-25T02:45:48;15.67;;;4.53;;
3274;SDS011;1649;53.672;10.064;2023-04-25T02:48:13;16.97;;;4.93;;
3274;SDS011;1649;53.672;10.064;2023-04-25T02:50:39;17.30;;;4.90;;
3274;SDS011;1649;53.672;10.064;2023-04-25T02:53:04;18.60;;;5.63;;
3274;SDS011;1649;53.672;10.064;2023-04-25T02:55:30;18.23;;;4.60;;
3274;SDS011;1649;53.672;10.064;2023-04-25T02:57:55;21.30;;;5.47;;
3274;SDS011;1649;53.672;10.064;2023-04-25T03:00:21;23.47;;;5.87;;
3274;SDS011;1649;53.672;10.064;2023-04-25T03:02:47;19.23;;;4.93;;
3274;SDS011;1649;53.672;10.064;2023-04-25T03:05:13;18.33;;;5.40;;
3274;SDS011;1649;53.672;10.064;2023-04-25T03:07:38;14.23;;;4.67;;
3274;SDS011;1649;53.672;10.064;2023-04-25T03:10:05;17.73;;;4.23;;
3274;SDS011;1649;53.672;10.064;2023-04-25T03:12:31;17.70;;;4.40;;
3274;SDS011;1649;53.672;10.064;2023-04-25T03:14:57;16.07;;;4.87;;
3274;SDS011;1649;53.672;10.064;2023-04-25T03:17:22;18.90;;;4.60;;
3274;SDS011;1649;53.672;10.064;2023-04-25T03:19:48;18.50;;;4.57;;
3274;SDS011;1649;53.672;10.064;2023-04-25T03:22:13;14.53;;;4.43;;
3274;SDS011;1649;53.672;10.064;2023-04-25T03:24:38;19.30;;;4.70;;
3274;SDS011;1649;53.672;10.064;2023-04-25T03:27:05;17.73;;;5.90;;
3274;SDS011;1649;53.672;10.064;2023-04-25T03:29:30;16.23;;;4.40;;
3274;SDS011;1649;53.672;10.064;2023-04-25T03:31:56;27.20;;;6.20;;
3274;SDS011;1649;53.672;10.064;2023-04-25T03:34:21;15.73;;;4.60;;
3274;SDS011;1649;53.672;10.064;2023-04-25T03:36:47;18.80;;;4.13;;
3274;SDS011;1649;53.672;10.064;2023-04-25T03:39:12;22.80;;;4.77;;
3274;SDS011;1649;53.672;10.064;2023-04-25T03:41:38;14.13;;;4.97;;
3274;SDS011;1649;53.672;10.064;2023-04-25T03:44:03;16.30;;;4.77;;
3274;SDS011;1649;53.672;10.064;2023-04-25T03:46:29;16.90;;;5.00;;
3274;SDS011;1649;53.672;10.064;2023-04-25T03:48:54;21.60;;;4.93;;
3274;SDS011;1649;53.672;10.064;2023-04-25T03:51:20;14.50;;;4.73;;
3274;SDS011;1649;53.672;10.064;2023-04-25T03:53:45;18.77;;;5.30;;
3274;SDS011;1649;53.672;10.064;2023-04-25T03:56:11;21.40;;;4.57;;
3274;SDS011;1649;53.672;10.064;2023-04-25T03:58:36;15.03;;;4.77;;
3274;SDS011;1649;53.672;10.064;2023-04-25T04:01:02;10.83;;;4.37;;
3274;SDS011;1649;53.672;10.064;2023-04-25T04:03:33;16.70;;;4.70;;
3274;SDS011;1649;53.672;10.064;2023-04-25T04:06:00;15.40;;;4.70;;
3274;SDS011;1649;53.672;10.064;2023-04-25T04:08:25;19.50;;;6.00;;
3274;SDS011;1649;53.672;10.064;2023-04-25T04:10:51;16.50;;;4.67;;
3274;SDS011;1649;53.672;10.064;2023-04-25T04:13:16;15.80;;;4.63;;
3274;SDS011;1649;53.672;10.064;2023-04-25T04:15:41;15.20;;;3.93;;
3274;SDS011;1649;53.672;10.064;2023-04-25T04:18:07;14.73;;;4.53;;
3274;SDS011;1649;53.672;10.064;2023-04-25T04:20:33;12.20;;;4.03;;
3274;SDS011;1649;53.672;10.064;2023-04-25T04:22:58;18.10;;;4.43;;
3274;SDS011;1649;53.672;10.064;2023-04-25T04:25:24;13.53;;;4.00;;
3274;SDS011;1649;53.672;10.064;2023-04-25T04:27:49;11.80;;;3.90;;
3274;SDS011;1649;53.672;10.064;2023-04-25T04:30:19;12.43;;;3.90;;
3274;SDS011;1649;53.672;10.064;2023-04-25T04:32:46;12.13;;;4.43;;
3274;SDS011;1649;53.672;10.064;2023-04-25T04:35:13;13.47;;;4.03;;
3274;SDS011;1649;53.672;10.064;2023-04-25T04:37:39;17.63;;;4.00;;
3274;SDS011;1649;53.672;10.064;2023-04-25T04:40:05;16.77;;;4.53;;
3274;SDS011;1649;53.672;10.064;2023-04-25T04:42:31;14.63;;;4.00;;
3274;SDS011;1649;53.672;10.064;2023-04-25T04:44:57;14.00;;;4.13;;
3274;SDS011;1649;53.672;10.064;2023-04-25T04:47:23;13.37;;;4.30;;
3274;SDS011;1649;53.672;10.064;2023-04-25T04:49:50;21.30;;;4.60;;
3274;SDS011;1649;53.672;10.064;2023-04-25T04:52:16;17.03;;;4.30;;
3274;SDS011;1649;53.672;10.064;2023-04-25T04:54:41;16.73;;;4.80;;
3274;SDS011;1649;53.672;10.064;2023-04-25T04:57:07;16.07;;;4.10;;
3274;SDS011;1649;53.672;10.064;2023-04-25T04:59:32;13.37;;;3.87;;
3274;SDS011;1649;53.672;10.064;2023-04-25T05:01:58;10.80;;;4.30;;
3274;SDS011;1649;53.672;10.064;2023-04-25T05:04:23;17.20;;;4.10;;
3274;SDS011;1649;53.672;10.064;2023-04-25T05:06:49;17.20;;;4.33;;
3274;SDS011;1649;53.672;10.064;2023-04-25T05:09:14;15.63;;;4.40;;
3274;SDS011;1649;53.672;10.064;2023-04-25T05:11:40;12.23;;;5.00;;
3274;SDS011;1649;53.672;10.064;2023-04-25T05:14:05;13.23;;;3.60;;
3274;SDS011;1649;53.672;10.064;2023-04-25T05:16:31;14.30;;;4.30;;
3274;SDS011;1649;53.672;10.064;2023-04-25T05:18:56;18.30;;;4.37;;
3274;SDS011;1649;53.672;10.064;2023-04-25T05:21:22;18.80;;;4.40;;
3274;SDS011;1649;53.672;10.064;2023-04-25T05:23:47;18.40;;;4.23;;
3274;SDS011;1649;53.672;10.064;2023-04-25T05:26:13;10.37;;;3.50;;
3274;SDS011;1649;53.672;10.064;2023-04-25T05:28:39;15.50;;;4.30;;
3274;SDS011;1649;53.672;10.064;2023-04-25T05:31:06;13.90;;;3.73;;
3274;SDS011;1649;53.672;10.064;2023-04-25T05:33:31;15.53;;;4.00;;
3274;SDS011;1649;53.672;10.064;2023-04-25T05:35:57;13.80;;;3.50;;
3274;SDS011;1649;53.672;10.064;2023-04-25T05:38:22;15.67;;;3.70;;
3274;SDS011;1649;53.672;10.064;2023-04-25T05:40:48;14.33;;;3.60;;
3274;SDS011;1649;53.672;10.064;2023-04-25T05:43:13;11.60;;;3.20;;
3274;SDS011;1649;53.672;10.064;2023-04-25T05:45:39;16.10;;;3.53;;
3274;SDS011;1649;53.672;10.064;2023-04-25T05:48:04;8.43;;;3.10;;
3274;SDS011;1649;53.672;10.064;2023-04-25T05:50:30;13.30;;;3.20;;
3274;SDS011;1649;53.672;10.064;2023-04-25T05:52:56;13.37;;;3.50;;
3274;SDS011;1649;53.672;10.064;2023-04-25T05:55:21;11.03;;;3.80;;
3274;SDS011;1649;53.672;10.064;2023-04-25T05:57:47;9.50;;;3.80;;
3274;SDS011;1649;53.672;10.064;2023-04-25T06:00:12;13.40;;;3.73;;
3274;SDS011;1649;53.672;10.064;2023-04-25T06:02:40;12.50;;;3.67;;
3274;SDS011;1649;53.672;10.064;2023-04-25T06:05:06;14.43;;;3.70;;
3274;SDS011;1649;53.672;10.064;2023-04-25T06:07:32;10.23;;;3.73;;
3274;SDS011;1649;53.672;10.064;2023-04-25T06:09:58;9.50;;;3.20;;
3274;SDS011;1649;53.672;10.064;2023-04-25T06:12:25;12.10;;;3.77;;
3274;SDS011;1649;53.672;10.064;2023-04-25T06:14:50;10.70;;;2.93;;
3274;SDS011;1649;53.672;10.064;2023-04-25T06:17:16;15.60;;;3.70;;
3274;SDS011;1649;53.672;10.064;2023-04-25T06:19:41;11.53;;;3.40;;
3274;SDS011;1649;53.672;10.064;2023-04-25T06:22:07;10.60;;;2.93;;
3274;SDS011;1649;53.672;10.064;2023-04-25T06:24:32;15.10;;;3.17;;
3274;SDS011;1649;53.672;10.064;2023-04-25T06:26:58;16.97;;;3.73;;
3274;SDS011;1649;53.672;10.064;2023-04-25T06:29:24;12.37;;;3.30;;
3274;SDS011;1649;53.672;10.064;2023-04-25T06:31:50;12.47;;;3.40;;
3274;SDS011;1649;53.672;10.064;2023-04-25T06:34:15;14.20;;;3.60;;
3274;SDS011;1649;53.672;10.064;2023-04-25T06:36:42;13.53;;;3.40;;
3274;SDS011;1649;53.672;10.064;2023-04-25T06:39:09;13.87;;;3.83;;
3274;SDS011;1649;53.672;10.064;2023-04-25T06:41:34;10.63;;;3.40;;
3274;SDS011;1649;53.672;10.064;2023-04-25T06:44:00;17.47;;;3.70;;
3274;SDS011;1649;53.672;10.064;2023-04-25T06:46:26;12.23;;;3.40;;
3274;SDS011;1649;53.672;10.064;2023-04-25T06:48:51;14.67;;;3.63;;
3274;SDS011;1649;53.672;10.064;2023-04-25T06:51:17;14.70;;;3.80;;
3274;SDS011;1649;53.672;10.064;2023-04-25T06:53:42;12.00;;;3.87;;
3274;SDS011;1649;53.672;10.064;2023-04-25T06:56:08;13.73;;;3.73;;
3274;SDS011;1649;53.672;10.064;2023-04-25T06:58:33;13.00;;;3.50;;
3274;SDS011;1649;53.672;10.064;2023-04-25T07:00:59;13.67;;;3.70;;
3274;SDS011;1649;53.672;10.064;2023-04-25T07:03:25;11.77;;;3.73;;
3274;SDS011;1649;53.672;10.064;2023-04-25T07:05:50;14.63;;;3.73;;
3274;SDS011;1649;53.672;10.064;2023-04-25T07:08:16;16.20;;;3.60;;
3274;SDS011;1649;53.672;10.064;2023-04-25T07:10:42;16.73;;;3.20;;
3274;SDS011;1649;53.672;10.064;2023-04-25T07:13:08;11.70;;;3.50;;
3274;SDS011;1649;53.672;10.064;2023-04-25T07:15:33;10.73;;;3.80;;
3274;SDS011;1649;53.672;10.064;2023-04-25T07:17:59;11.80;;;3.43;;
3274;SDS011;1649;53.672;10.064;2023-04-25T07:20:25;9.27;;;2.53;;
3274;SDS011;1649;53.672;10.064;2023-04-25T07:22:52;11.50;;;2.83;;
3274;SDS011;1649;53.672;10.064;2023-04-25T07:25:18;11.10;;;2.80;;
3274;SDS011;1649;53.672;10.064;2023-04-25T07:27:44;10.10;;;2.80;;
3274;SDS011;1649;53.672;10.064;2023-04-25T07:30:10;7.30;;;2.43;;
3274;SDS011;1649;53.672;10.064;2023-04-25T07:32:35;9.37;;;2.67;;
3274;SDS011;1649;53.672;10.064;2023-04-25T07:35:01;11.70;;;2.70;;
3274;SDS011;1649;53.672;10.064;2023-04-25T07:37:28;8.63;;;2.50;;
3274;SDS011;1649;53.672;10.064;2023-04-25T07:39:53;12.97;;;3.30;;
3274;SDS011;1649;53.672;10.064;2023-04-25T07:42:19;7.23;;;2.53;;
3274;SDS011;1649;53.672;10.064;2023-04-25T07:44:46;11.43;;;2.57;;
3274;SDS011;1649;53.672;10.064;2023-04-25T07:47:12;10.00;;;2.67;;
3274;SDS011;1649;53.672;10.064;2023-04-25T07:49:38;18.20;;;3.67;;
3274;SDS011;1649;53.672;10.064;2023-04-25T07:52:04;10.00;;;2.50;;
3274;SDS011;1649;53.672;10.064;2023-04-25T07:54:31;13.73;;;2.40;;
3274;SDS011;1649;53.672;10.064;2023-04-25T07:56:56;9.80;;;3.43;;
3274;SDS011;1649;53.672;10.064;2023-04-25T07:59:22;10.17;;;2.63;;
3274;SDS011;1649;53.672;10.064;2023-04-25T08:01:47;11.77;;;2.63;;
3274;SDS011;1649;53.672;10.064;2023-04-25T08:04:13;11.17;;;2.70;;
3274;SDS011;1649;53.672;10.064;2023-04-25T08:06:39;11.40;;;2.50;;
3274;SDS011;1649;53.672;10.064;2023-04-25T08:09:05;11.20;;;2.60;;
3274;SDS011;1649;53.672;10.064;2023-04-25T08:11:31;17.53;;;3.17;;
3274;SDS011;1649;53.672;10.064;2023-04-25T08:13:56;12.77;;;3.70;;
3274;SDS011;1649;53.672;10.064;2023-04-25T08:16:22;8.37;;;2.30;;
3274;SDS011;1649;53.672;10.064;2023-04-25T08:18:47;9.90;;;2.60;;
3274;SDS011;1649;53.672;10.064;2023-04-25T08:21:14;10.47;;;2.50;;
3274;SDS011;1649;53.672;10.064;2023-04-25T08:23:40;9.53;;;2.30;;
3274;SDS011;1649;53.672;10.064;2023-04-25T08:26:05;9.63;;;2.30;;
3274;SDS011;1649;53.672;10.064;2023-04-25T08:28:31;11.03;;;2.10;;
3274;SDS011;1649;53.672;10.064;2023-04-25T08:30:57;10.00;;;2.27;;
3274;SDS011;1649;53.672;10.064;2023-04-25T08:33:23;6.90;;;1.93;;
3274;SDS011;1649;53.672;10.064;2023-04-25T08:35:48;7.50;;;2.10;;
3274;SDS011;1649;53.672;10.064;2023-04-25T08:38:14;8.73;;;1.80;;
3274;SDS011;1649;53.672;10.064;2023-04-25T08:40:39;8.67;;;2.00;;
3274;SDS011;1649;53.672;10.064;2023-04-25T08:43:06;8.47;;;2.10;;
3274;SDS011;1649;53.672;10.064;2023-04-25T08:45:36;7.50;;;1.97;;
3274;SDS011;1649;53.672;10.064;2023-04-25T08:48:05;8.90;;;1.83;;
3274;SDS011;1649;53.672;10.064;2023-04-25T08:50:35;12.20;;;2.33;;
3274;SDS011;1649;53.672;10.064;2023-04-25T08:53:03;12.83;;;2.43;;
3274;SDS011;1649;53.672;10.064;2023-04-25T08:55:33;11.93;;;2.50;;
3274;SDS011;1649;53.672;10.064;2023-04-25T08:57:59;10.30;;;2.43;;
3274;SDS011;1649;53.672;10.064;2023-04-25T09:00:25;9.33;;;2.60;;
3274;SDS011;1649;53.672;10.064;2023-04-25T09:02:51;8.57;;;2.50;;
3274;SDS011;1649;53.672;10.064;2023-04-25T09:05:18;10.87;;;2.60;;
3274;SDS011;1649;53.672;10.064;2023-04-25T09:07:44;10.80;;;2.10;;
3274;SDS011;1649;53.672;10.064;2023-04-25T09:10:09;14.73;;;2.40;;
3274;SDS011;1649;53.672;10.064;2023-04-25T09:12:35;12.67;;;2.53;;
3274;SDS011;1649;53.672;10.064;2023-04-25T09:17:36;8.87;;;2.30;;
3274;SDS011;1649;53.672;10.064;2023-04-25T09:20:08;9.20;;;2.10;;
3274;SDS011;1649;53.672;10.064;2023-04-25T09:22:36;12.20;;;2.70;;
3274;SDS011;1649;53.672;10.064;2023-04-25T09:25:03;10.20;;;2.63;;
3274;SDS011;1649;53.672;10.064;2023-04-25T09:27:33;8.23;;;2.40;;
3274;SDS011;1649;53.672;10.064;2023-04-25T09:29:59;10.47;;;2.63;;
3274;SDS011;1649;53.672;10.064;2023-04-25T09:32:25;9.47;;;1.67;;
3274;SDS011;1649;53.672;10.064;2023-04-25T09:34:52;11.33;;;2.40;;
3274;SDS011;1649;53.672;10.064;2023-04-25T09:37:20;10.43;;;2.17;;
3274;SDS011;1649;53.672;10.064;2023-04-25T09:39:52;10.60;;;2.07;;
3274;SDS011;1649;53.672;10.064;2023-04-25T09:42:22;7.97;;;2.03;;
3274;SDS011;1649;53.672;10.064;2023-04-25T09:44:49;5.60;;;1.70;;
3274;SDS011;1649;53.672;10.064;2023-04-25T09:47:18;10.87;;;2.40;;
3274;SDS011;1649;53.672;10.064;2023-04-25T09:49:46;13.20;;;2.60;;
3274;SDS011;1649;53.672;10.064;2023-04-25T09:52:19;10.20;;;2.90;;
3274;SDS011;1649;53.672;10.064;2023-04-25T09:54:46;10.63;;;2.80;;
3274;SDS011;1649;53.672;10.064;2023-04-25T09:57:14;11.07;;;2.30;;
3274;SDS011;1649;53.672;10.064;2023-04-25T09:59:42;9.87;;;2.53;;
3274;SDS011;1649;53.672;10.064;2023-04-25T10:02:13;10.97;;;2.10;;
3274;SDS011;1649;53.672;10.064;2023-04-25T10:04:40;7.10;;;2.03;;
3274;SDS011;1649;53.672;10.064;2023-04-25T10:07:07;9.00;;;1.93;;
3274;SDS011;1649;53.672;10.064;2023-04-25T10:09:33;8.13;;;1.90;;
3274;SDS011;1649;53.672;10.064;2023-04-25T10:12:02;7.00;;;1.80;;
3274;SDS011;1649;53.672;10.064;2023-04-25T10:14:29;10.30;;;1.63;;
3274;SDS011;1649;53.672;10.064;2023-04-25T10:16:56;6.47;;;1.60;;
3274;SDS011;1649;53.672;10.064;2023-04-25T10:19:23;6.70;;;1.60;;
3274;SDS011;1649;53.672;10.064;2023-04-25T10:21:54;9.33;;;1.63;;
3274;SDS011;1649;53.672;10.064;2023-04-25T10:24:27;6.80;;;1.70;;
3274;SDS011;1649;53.672;10.064;2023-04-25T10:26:53;9.40;;;1.53;;
3274;SDS011;1649;53.672;10.064;2023-04-25T10:29:25;7.07;;;1.47;;
3274;SDS011;1649;53.672;10.064;2023-04-25T10:31:51;9.33;;;2.03;;
3274;SDS011;1649;53.672;10.064;2023-04-25T10:34:17;10.87;;;1.70;;
3274;SDS011;1649;53.672;10.064;2023-04-25T10:36:46;9.30;;;1.93;;
3274;SDS011;1649;53.672;10.064;2023-04-25T10:39:15;9.40;;;1.90;;
3274;SDS011;1649;53.672;10.064;2023-04-25T10:41:57;7.00;;;1.87;;
3274;SDS011;1649;53.672;10.064;2023-04-25T10:44:26;6.10;;;1.63;;
3274;SDS011;1649;53.672;10.064;2023-04-25T10:46:54;7.37;;;2.00;;
3274;SDS011;1649;53.672;10.064;2023-04-25T10:49:34;11.10;;;1.70;;
3274;SDS011;1649;53.672;10.064;2023-04-25T10:52:16;7.17;;;1.40;;
3274;SDS011;1649;53.672;10.064;2023-04-25T10:54:51;10.73;;;1.80;;
3274;SDS011;1649;53.672;10.064;2023-04-25T10:57:30;5.83;;;1.40;;
3274;SDS011;1649;53.672;10.064;2023-04-25T11:02:42;10.47;;;1.87;;
3274;SDS011;1649;53.672;10.064;2023-04-25T11:05:34;6.80;;;1.60;;
3274;SDS011;1649;53.672;10.064;2023-04-25T11:08:01;10.40;;;2.20;;
3274;SDS011;1649;53.672;10.064;2023-04-25T11:10:28;11.30;;;2.00;;
3274;SDS011;1649;53.672;10.064;2023-04-25T11:12:55;5.40;;;1.97;;
3274;SDS011;1649;53.672;10.064;2023-04-25T11:15:22;5.10;;;1.10;;
3274;SDS011;1649;53.672;10.064;2023-04-25T11:17:48;7.57;;;1.20;;
3274;SDS011;1649;53.672;10.064;2023-04-25T11:20:15;6.17;;;1.70;;
3274;SDS011;1649;53.672;10.064;2023-04-25T11:22:41;6.60;;;1.20;;
3274;SDS011;1649;53.672;10.064;2023-04-25T11:25:09;5.80;;;1.50;;
3274;SDS011;1649;53.672;10.064;2023-04-25T11:27:52;5.50;;;1.80;;
3274;SDS011;1649;53.672;10.064;2023-04-25T11:30:18;10.03;;;1.50;;
3274;SDS011;1649;53.672;10.064;2023-04-25T11:32:45;5.03;;;1.80;;
3274;SDS011;1649;53.672;10.064;2023-04-25T11:35:11;5.63;;;1.77;;
3274;SDS011;1649;53.672;10.064;2023-04-25T11:37:40;9.17;;;1.50;;
3274;SDS011;1649;53.672;10.064;2023-04-25T11:40:07;8.53;;;1.70;;
3274;SDS011;1649;53.672;10.064;2023-04-25T11:42:34;6.43;;;1.40;;
3274;SDS011;1649;53.672;10.064;2023-04-25T11:45:01;7.90;;;1.70;;
3274;SDS011;1649;53.672;10.064;2023-04-25T11:47:29;11.70;;;2.50;;
3274;SDS011;1649;53.672;10.064;2023-04-25T11:49:55;5.77;;;1.30;;
3274;SDS011;1649;53.672;10.064;2023-04-25T11:52:23;7.80;;;1.50;;
3274;SDS011;1649;53.672;10.064;2023-04-25T11:54:48;8.70;;;1.67;;
3274;SDS011;1649;53.672;10.064;2023-04-25T11:57:14;5.50;;;1.30;;
3274;SDS011;1649;53.672;10.064;2023-04-25T11:59:40;5.00;;;1.20;;
3274;SDS011;1649;53.672;10.064;2023-04-25T12:02:05;6.33;;;1.30;;
3274;SDS011;1649;53.672;10.064;2023-04-25T12:04:31;6.43;;;1.77;;
3274;SDS011;1649;53.672;10.064;2023-04-25T12:06:57;6.63;;;2.07;;
3274;SDS011;1649;53.672;10.064;2023-04-25T12:09:31;6.50;;;1.27;;
3274;SDS011;1649;53.672;10.064;2023-04-25T12:11:58;8.10;;;2.10;;
3274;SDS011;1649;53.672;10.064;2023-04-25T12:14:28;9.00;;;1.50;;
3274;SDS011;1649;53.672;10.064;2023-04-25T12:16:56;5.10;;;1.50;;
3274;SDS011;1649;53.672;10.064;2023-04-25T12:19:23;5.27;;;1.43;;
3274;SDS011;1649;53.672;10.064;2023-04-25T12:21:49;8.97;;;1.57;;
3274;SDS011;1649;53.672;10.064;2023-04-25T12:24:16;6.00;;;1.50;;
3274;SDS011;1649;53.672;10.064;2023-04-25T12:29:24;6.80;;;1.47;;
3274;SDS011;1649;53.672;10.064;2023-04-25T12:31:51;8.80;;;2.30;;
3274;SDS011;1649;53.672;10.064;2023-04-25T12:34:20;11.13;;;1.50;;
3274;SDS011;1649;53.672;10.064;2023-04-25T12:36:47;7.20;;;1.60;;
3274;SDS011;1649;53.672;10.064;2023-04-25T12:39:20;6.27;;;1.43;;
3274;SDS011;1649;53.672;10.064;2023-04-25T12:41:47;7.17;;;1.73;;
3274;SDS011;1649;53.672;10.064;2023-04-25T12:44:18;7.10;;;1.50;;
3274;SDS011;1649;53.672;10.064;2023-04-25T12:46:44;5.77;;;1.60;;
3274;SDS011;1649;53.672;10.064;2023-04-25T12:49:10;7.10;;;1.50;;
3274;SDS011;1649;53.672;10.064;2023-04-25T12:51:36;7.83;;;1.83;;
3274;SDS011;1649;53.672;10.064;2023-04-25T12:54:02;6.00;;;2.20;;
3274;SDS011;1649;53.672;10.064;2023-04-25T12:56:29;10.20;;;1.83;;
3274;SDS011;1649;53.672;10.064;2023-04-25T12:58:56;9.47;;;2.80;;
3274;SDS011;1649;53.672;10.064;2023-04-25T13:01:22;8.17;;;2.00;;
3274;SDS011;1649;53.672;10.064;2023-04-25T13:03:49;9.67;;;1.30;;
3274;SDS011;1649;53.672;10.064;2023-04-25T13:06:15;7.27;;;1.60;;
3274;SDS011;1649;53.672;10.064;2023-04-25T13:08:41;8.80;;;1.90;;
3274;SDS011;1649;53.672;10.064;2023-04-25T13:11:07;7.93;;;1.80;;
3274;SDS011;1649;53.672;10.064;2023-04-25T13:13:33;10.80;;;1.87;;
3274;SDS011;1649;53.672;10.064;2023-04-25T13:16:00;11.90;;;2.43;;
3274;SDS011;1649;53.672;10.064;2023-04-25T13:18:26;11.10;;;2.17;;
3274;SDS011;1649;53.672;10.064;2023-04-25T13:20:53;9.30;;;2.00;;
3274;SDS011;1649;53.672;10.064;2023-04-25T13:23:19;12.63;;;2.57;;
3274;SDS011;1649;53.672;10.064;2023-04-25T13:25:45;11.93;;;2.00;;
3274;SDS011;1649;53.672;10.064;2023-04-25T13:28:11;5.63;;;2.03;;
3274;SDS011;1649;53.672;10.064;2023-04-25T13:30:36;11.50;;;2.00;;
3274;SDS011;1649;53.672;10.064;2023-04-25T13:33:02;10.80;;;2.50;;
3274;SDS011;1649;53.672;10.064;2023-04-25T13:35:28;11.03;;;2.37;;
3274;SDS011;1649;53.672;10.064;2023-04-25T13:37:54;8.20;;;2.10;;
3274;SDS011;1649;53.672;10.064;2023-04-25T13:40:20;10.17;;;2.43;;
3274;SDS011;1649;53.672;10.064;2023-04-25T13:42:46;8.13;;;2.53;;
3274;SDS011;1649;53.672;10.064;2023-04-25T13:45:11;10.57;;;1.90;;
3274;SDS011;1649;53.672;10.064;2023-04-25T13:47:37;8.50;;;2.33;;
3274;SDS011;1649;53.672;10.064;2023-04-25T13:50:05;9.60;;;3.23;;
3274;SDS011;1649;53.672;10.064;2023-04-25T13:52:32;10.50;;;2.67;;
3274;SDS011;1649;53.672;10.064;2023-04-25T13:54:58;13.70;;;3.30;;
3274;SDS011;1649;53.672;10.064;2023-04-25T13:57:23;10.33;;;2.57;;
3274;SDS011;1649;53.672;10.064;2023-04-25T13:59:50;11.33;;;2.73;;
3274;SDS011;1649;53.672;10.064;2023-04-25T14:02:16;8.07;;;2.30;;
3274;SDS011;1649;53.672;10.064;2023-04-25T14:04:41;8.97;;;2.20;;
3274;SDS011;1649;53.672;10.064;2023-04-25T14:07:07;5.93;;;2.40;;
3274;SDS011;1649;53.672;10.064;2023-04-25T14:09:33;9.47;;;2.47;;
3274;SDS011;1649;53.672;10.064;2023-04-25T14:11:59;7.93;;;2.30;;
3274;SDS011;1649;53.672;10.064;2023-04-25T14:14:25;8.10;;;1.90;;
3274;SDS011;1649;53.672;10.064;2023-04-25T14:16:51;8.93;;;2.23;;
3274;SDS011;1649;53.672;10.064;2023-04-25T14:19:18;8.77;;;2.07;;
3274;SDS011;1649;53.672;10.064;2023-04-25T14:21:45;10.33;;;2.53;;
3274;SDS011;1649;53.672;10.064;2023-04-25T14:24:11;5.20;;;1.40;;
3274;SDS011;1649;53.672;10.064;2023-04-25T14:26:38;7.97;;;1.80;;
3274;SDS011;1649;53.672;10.064;2023-04-25T14:29:04;9.37;;;2.17;;
3274;SDS011;1649;53.672;10.064;2023-04-25T14:31:30;5.73;;;1.70;;
3274;SDS011;1649;53.672;10.064;2023-04-25T14:33:56;11.53;;;2.23;;
3274;SDS011;1649;53.672;10.064;2023-04-25T14:36:22;9.93;;;2.13;;
3274;SDS011;1649;53.672;10.064;2023-04-25T14:38:47;7.03;;;2.40;;
3274;SDS011;1649;53.672;10.064;2023-04-25T14:41:13;6.50;;;1.90;;
3274;SDS011;1649;53.672;10.064;2023-04-25T14:43:38;8.20;;;1.47;;
3274;SDS011;1649;53.672;10.064;2023-04-25T14:46:05;6.60;;;2.07;;
3274;SDS011;1649;53.672;10.064;2023-04-25T14:48:31;9.27;;;1.87;;
3274;SDS011;1649;53.672;10.064;2023-04-25T14:50:57;11.00;;;1.70;;
3274;SDS011;1649;53.672;10.064;2023-04-25T14:53:22;11.60;;;2.40;;
3274;SDS011;1649;53.672;10.064;2023-04-25T14:55:48;7.10;;;2.20;;
3274;SDS011;1649;53.672;10.064;2023-04-25T14:58:14;8.03;;;1.83;;